sensor_id;sensor_type;location;lat;lon;timestamp;temperature;humidity
15355;DHT22;7777;52.254;9.618;2023-03-14T00:02:22;12.50;99.90
15355;DHT22;7777;52.254;9.618;2023-03-14T00:04:48;12.50;99.90
15355;DHT22;7777;52.254;9.618;2023-03-14T00:07:14;12.50;99.90
15355;DHT22;7777;52.254;9.618;2023-03-14T00:09:40;12.60;99.90
15355;DHT22;7777;52.254;9.618;2023-03-14T00:12:06;12.50;99.90
15355;DHT22;7777;52.254;9.618;2023-03-14T00:14:33;12.50;99.90
15355;DHT22;7777;52.254;9.618;2023-03-14T00:16:58;12.50;99.90
15355;DHT22;7777;52.254;9.618;2023-03-14T00:19:24;12.60;99.90
15355;DHT22;7777;52.254;9.618;2023-03-14T00:21:50;12.60;99.90
15355;DHT22;7777;52.254;9.618;2023-03-14T00:24:15;12.60;99.90
15355;DHT22;7777;52.254;9.618;2023-03-14T00:26:41;12.50;99.90
15355;DHT22;7777;52.254;9.618;2023-03-14T00:29:07;12.60;99.90
15355;DHT22;7777;52.254;9.618;2023-03-14T00:31:32;12.60;99.90
15355;DHT22;7777;52.254;9.618;2023-03-14T00:33:58;12.60;99.90
15355;DHT22;7777;52.254;9.618;2023-03-14T00:36:25;12.60;99.90
15355;DHT22;7777;52.254;9.618;2023-03-14T00:38:51;12.60;99.90
15355;DHT22;7777;52.254;9.618;2023-03-14T00:41:19;12.60;99.90
15355;DHT22;7777;52.254;9.618;2023-03-14T00:43:50;12.60;99.90
15355;DHT22;7777;52.254;9.618;2023-03-14T00:46:16;12.60;99.90
15355;DHT22;7777;52.254;9.618;2023-03-14T00:48:44;12.60;99.90
15355;DHT22;7777;52.254;9.618;2023-03-14T00:51:11;12.50;99.90
15355;DHT22;7777;52.254;9.618;2023-03-14T00:53:39;12.50;99.90
15355;DHT22;7777;52.254;9.618;2023-03-14T00:56:09;12.50;99.90
15355;DHT22;7777;52.254;9.618;2023-03-14T00:58:36;12.50;99.90
15355;DHT22;7777;52.254;9.618;2023-03-14T01:01:12;12.50;99.90
15355;DHT22;7777;52.254;9.618;2023-03-14T01:03:39;12.40;99.90
15355;DHT22;7777;52.254;9.618;2023-03-14T01:06:14;12.50;99.90
15355;DHT22;7777;52.254;9.618;2023-03-14T01:08:41;12.40;99.90
15355;DHT22;7777;52.254;9.618;2023-03-14T01:11:13;12.40;99.90
15355;DHT22;7777;52.254;9.618;2023-03-14T01:13:42;12.40;99.90
15355;DHT22;7777;52.254;9.618;2023-03-14T01:16:10;12.40;99.90
15355;DHT22;7777;52.254;9.618;2023-03-14T01:18:38;12.40;99.90
15355;DHT22;7777;52.254;9.618;2023-03-14T01:21:11;12.30;99.90
15355;DHT22;7777;52.254;9.618;2023-03-14T01:23:38;12.30;99.90
15355;DHT22;7777;52.254;9.618;2023-03-14T01:26:04;12.30;99.90
15355;DHT22;7777;52.254;9.618;2023-03-14T01:28:33;12.30;99.90
15355;DHT22;7777;52.254;9.618;2023-03-14T01:31:03;12.30;99.90
15355;DHT22;7777;52.254;9.618;2023-03-14T01:33:30;12.30;99.90
15355;DHT22;7777;52.254;9.618;2023-03-14T01:35:55;12.30;99.90
15355;DHT22;7777;52.254;9.618;2023-03-14T01:38:21;12.30;99.90
15355;DHT22;7777;52.254;9.618;2023-03-14T01:40:47;12.30;99.90
15355;DHT22;7777;52.254;9.618;2023-03-14T01:43:18;12.30;99.90
15355;DHT22;7777;52.254;9.618;2023-03-14T01:48:35;12.30;99.90
15355;DHT22;7777;52.254;9.618;2023-03-14T01:51:05;12.30;99.90
15355;DHT22;7777;52.254;9.618;2023-03-14T01:53:34;12.30;99.90
15355;DHT22;7777;52.254;9.618;2023-03-14T01:56:01;12.30;99.90
15355;DHT22;7777;52.254;9.618;2023-03-14T01:58:30;12.30;99.90
15355;DHT22;7777;52.254;9.618;2023-03-14T02:00:58;12.30;99.90
15355;DHT22;7777;52.254;9.618;2023-03-14T02:03:25;12.30;99.90
15355;DHT22;7777;52.254;9.618;2023-03-14T02:05:53;12.30;99.90
15355;DHT22;7777;52.254;9.618;2023-03-14T02:08:22;12.30;99.90
15355;DHT22;7777;52.254;9.618;2023-03-14T02:10:50;12.30;99.90
15355;DHT22;7777;52.254;9.618;2023-03-14T02:13:17;12.30;99.90
15355;DHT22;7777;52.254;9.618;2023-03-14T02:15:45;12.30;99.90
15355;DHT22;7777;52.254;9.618;2023-03-14T02:18:12;12.40;99.90
15355;DHT22;7777;52.254;9.618;2023-03-14T02:23:16;12.30;99.90
15355;DHT22;7777;52.254;9.618;2023-03-14T02:26:08;12.30;99.90
15355;DHT22;7777;52.254;9.618;2023-03-14T02:28:37;12.30;99.90
15355;DHT22;7777;52.254;9.618;2023-03-14T02:31:03;12.30;99.90
15355;DHT22;7777;52.254;9.618;2023-03-14T02:33:29;12.30;99.90
15355;DHT22;7777;52.254;9.618;2023-03-14T02:35:59;12.30;99.90
15355;DHT22;7777;52.254;9.618;2023-03-14T02:38:55;12.30;99.90
15355;DHT22;7777;52.254;9.618;2023-03-14T02:41:23;12.30;99.90
15355;DHT22;7777;52.254;9.618;2023-03-14T02:43:49;12.20;99.90
15355;DHT22;7777;52.254;9.618;2023-03-14T02:46:19;12.20;99.90
15355;DHT22;7777;52.254;9.618;2023-03-14T02:49:01;12.20;99.90
15355;DHT22;7777;52.254;9.618;2023-03-14T02:51:29;12.10;99.90
15355;DHT22;7777;52.254;9.618;2023-03-14T02:53:55;12.10;99.90
15355;DHT22;7777;52.254;9.618;2023-03-14T02:56:21;12.10;99.90
15355;DHT22;7777;52.254;9.618;2023-03-14T02:58:46;12.10;99.90
15355;DHT22;7777;52.254;9.618;2023-03-14T03:01:12;12.10;99.90
15355;DHT22;7777;52.254;9.618;2023-03-14T03:03:38;12.10;99.90
15355;DHT22;7777;52.254;9.618;2023-03-14T03:06:03;12.10;99.90
15355;DHT22;7777;52.254;9.618;2023-03-14T03:08:29;12.10;99.90
15355;DHT22;7777;52.254;9.618;2023-03-14T03:10:56;12.00;99.90
15355;DHT22;7777;52.254;9.618;2023-03-14T03:13:22;12.00;99.90
15355;DHT22;7777;52.254;9.618;2023-03-14T03:15:48;12.00;99.90
15355;DHT22;7777;52.254;9.618;2023-03-14T03:18:14;12.00;99.90
15355;DHT22;7777;52.254;9.618;2023-03-14T03:20:40;12.10;99.90
15355;DHT22;7777;52.254;9.618;2023-03-14T03:23:05;12.00;99.90
15355;DHT22;7777;52.254;9.618;2023-03-14T03:25:31;12.00;99.90
15355;DHT22;7777;52.254;9.618;2023-03-14T03:27:57;12.00;99.90
15355;DHT22;7777;52.254;9.618;2023-03-14T03:30:23;12.00;99.90
15355;DHT22;7777;52.254;9.618;2023-03-14T03:32:49;12.00;99.90
15355;DHT22;7777;52.254;9.618;2023-03-14T03:35:15;12.00;99.90
15355;DHT22;7777;52.254;9.618;2023-03-14T03:37:41;12.00;99.90
15355;DHT22;7777;52.254;9.618;2023-03-14T03:40:08;12.00;99.90
15355;DHT22;7777;52.254;9.618;2023-03-14T03:42:34;12.00;99.90
15355;DHT22;7777;52.254;9.618;2023-03-14T03:45:01;12.00;99.90
15355;DHT22;7777;52.254;9.618;2023-03-14T03:47:27;11.90;99.90
15355;DHT22;7777;52.254;9.618;2023-03-14T03:49:53;11.80;99.90
15355;DHT22;7777;52.254;9.618;2023-03-14T03:52:19;11.70;99.90
15355;DHT22;7777;52.254;9.618;2023-03-14T03:54:46;11.50;99.90
15355;DHT22;7777;52.254;9.618;2023-03-14T03:57:11;11.30;99.90
15355;DHT22;7777;52.254;9.618;2023-03-14T03:59:37;11.30;99.90
15355;DHT22;7777;52.254;9.618;2023-03-14T04:02:05;11.20;99.90
15355;DHT22;7777;52.254;9.618;2023-03-14T04:04:31;11.20;99.90
15355;DHT22;7777;52.254;9.618;2023-03-14T04:06:56;11.10;99.90
15355;DHT22;7777;52.254;9.618;2023-03-14T04:09:22;11.00;99.90
15355;DHT22;7777;52.254;9.618;2023-03-14T04:11:48;10.90;99.90
15355;DHT22;7777;52.254;9.618;2023-03-14T04:14:13;10.90;99.90
15355;DHT22;7777;52.254;9.618;2023-03-14T04:16:39;10.90;99.90
15355;DHT22;7777;52.254;9.618;2023-03-14T04:19:05;10.90;99.90
15355;DHT22;7777;52.254;9.618;2023-03-14T04:21:31;10.80;99.90
15355;DHT22;7777;52.254;9.618;2023-03-14T04:23:56;10.70;99.90
15355;DHT22;7777;52.254;9.618;2023-03-14T04:26:22;10.60;99.90
15355;DHT22;7777;52.254;9.618;2023-03-14T04:28:48;10.60;99.90
15355;DHT22;7777;52.254;9.618;2023-03-14T04:31:18;10.50;99.90
15355;DHT22;7777;52.254;9.618;2023-03-14T04:33:46;10.40;99.90
15355;DHT22;7777;52.254;9.618;2023-03-14T04:36:12;10.40;99.90
15355;DHT22;7777;52.254;9.618;2023-03-14T04:38:38;10.30;99.90
15355;DHT22;7777;52.254;9.618;2023-03-14T04:41:04;10.30;99.90
15355;DHT22;7777;52.254;9.618;2023-03-14T04:43:30;10.20;99.90
15355;DHT22;7777;52.254;9.618;2023-03-14T04:45:57;10.20;99.90
15355;DHT22;7777;52.254;9.618;2023-03-14T04:48:24;10.10;99.90
15355;DHT22;7777;52.254;9.618;2023-03-14T04:50:50;10.10;99.90
15355;DHT22;7777;52.254;9.618;2023-03-14T04:53:17;10.10;99.90
15355;DHT22;7777;52.254;9.618;2023-03-14T04:55:48;10.00;99.90
15355;DHT22;7777;52.254;9.618;2023-03-14T04:58:15;10.00;99.90
15355;DHT22;7777;52.254;9.618;2023-03-14T05:00:41;10.00;99.90
15355;DHT22;7777;52.254;9.618;2023-03-14T05:03:06;9.90;99.90
15355;DHT22;7777;52.254;9.618;2023-03-14T05:05:32;9.90;99.90
15355;DHT22;7777;52.254;9.618;2023-03-14T05:07:58;9.90;99.90
15355;DHT22;7777;52.254;9.618;2023-03-14T05:10:23;9.90;99.90
15355;DHT22;7777;52.254;9.618;2023-03-14T05:12:49;9.90;99.90
15355;DHT22;7777;52.254;9.618;2023-03-14T05:15:15;9.90;99.90
15355;DHT22;7777;52.254;9.618;2023-03-14T05:17:41;9.90;99.90
15355;DHT22;7777;52.254;9.618;2023-03-14T05:20:07;9.90;99.90
15355;DHT22;7777;52.254;9.618;2023-03-14T05:22:34;9.90;99.90
15355;DHT22;7777;52.254;9.618;2023-03-14T05:25:00;9.90;99.90
15355;DHT22;7777;52.254;9.618;2023-03-14T05:27:26;9.90;99.90
15355;DHT22;7777;52.254;9.618;2023-03-14T05:29:51;9.90;99.90
15355;DHT22;7777;52.254;9.618;2023-03-14T05:32:17;9.90;99.90
15355;DHT22;7777;52.254;9.618;2023-03-14T05:34:45;9.90;99.90
15355;DHT22;7777;52.254;9.618;2023-03-14T05:37:10;9.90;99.90
15355;DHT22;7777;52.254;9.618;2023-03-14T05:39:36;9.90;99.90
15355;DHT22;7777;52.254;9.618;2023-03-14T05:42:02;9.90;99.90
15355;DHT22;7777;52.254;9.618;2023-03-14T05:44:28;9.90;99.90
15355;DHT22;7777;52.254;9.618;2023-03-14T05:46:53;9.90;99.90
15355;DHT22;7777;52.254;9.618;2023-03-14T05:49:19;9.90;99.90
15355;DHT22;7777;52.254;9.618;2023-03-14T05:51:45;9.90;99.90
15355;DHT22;7777;52.254;9.618;2023-03-14T05:54:10;9.90;99.90
15355;DHT22;7777;52.254;9.618;2023-03-14T05:56:36;9.90;99.90
15355;DHT22;7777;52.254;9.618;2023-03-14T05:59:01;9.90;99.90
15355;DHT22;7777;52.254;9.618;2023-03-14T06:01:29;9.90;99.90
15355;DHT22;7777;52.254;9.618;2023-03-14T06:03:55;10.00;99.90
15355;DHT22;7777;52.254;9.618;2023-03-14T06:06:20;10.00;99.90
15355;DHT22;7777;52.254;9.618;2023-03-14T06:08:46;10.00;99.90
15355;DHT22;7777;52.254;9.618;2023-03-14T06:11:12;10.00;99.90
15355;DHT22;7777;52.254;9.618;2023-03-14T06:13:39;10.00;99.90
15355;DHT22;7777;52.254;9.618;2023-03-14T06:16:06;10.00;99.90
15355;DHT22;7777;52.254;9.618;2023-03-14T06:18:32;10.00;99.90
15355;DHT22;7777;52.254;9.618;2023-03-14T06:20:57;10.10;99.90
15355;DHT22;7777;52.254;9.618;2023-03-14T06:23:23;10.10;99.90
15355;DHT22;7777;52.254;9.618;2023-03-14T06:25:50;10.10;99.90
15355;DHT22;7777;52.254;9.618;2023-03-14T06:28:16;10.10;99.90
15355;DHT22;7777;52.254;9.618;2023-03-14T06:30:42;10.10;99.90
15355;DHT22;7777;52.254;9.618;2023-03-14T06:33:08;10.10;99.90
15355;DHT22;7777;52.254;9.618;2023-03-14T06:35:34;10.20;99.90
15355;DHT22;7777;52.254;9.618;2023-03-14T06:37:59;10.20;99.90
15355;DHT22;7777;52.254;9.618;2023-03-14T06:40:25;10.20;99.90
15355;DHT22;7777;52.254;9.618;2023-03-14T06:42:51;10.20;99.90
15355;DHT22;7777;52.254;9.618;2023-03-14T06:45:17;10.20;99.90
15355;DHT22;7777;52.254;9.618;2023-03-14T06:47:42;10.30;99.90
15355;DHT22;7777;52.254;9.618;2023-03-14T06:50:09;10.30;99.90
15355;DHT22;7777;52.254;9.618;2023-03-14T06:52:35;10.30;99.90
15355;DHT22;7777;52.254;9.618;2023-03-14T06:55:01;10.30;99.90
15355;DHT22;7777;52.254;9.618;2023-03-14T06:57:27;10.20;99.90
15355;DHT22;7777;52.254;9.618;2023-03-14T06:59:52;10.30;99.90
15355;DHT22;7777;52.254;9.618;2023-03-14T07:02:18;10.30;99.90
15355;DHT22;7777;52.254;9.618;2023-03-14T07:04:44;10.30;99.90
15355;DHT22;7777;52.254;9.618;2023-03-14T07:07:10;10.30;99.90
15355;DHT22;7777;52.254;9.618;2023-03-14T07:09:35;10.30;99.90
15355;DHT22;7777;52.254;9.618;2023-03-14T07:12:02;10.30;99.90
15355;DHT22;7777;52.254;9.618;2023-03-14T07:14:29;10.30;99.90
15355;DHT22;7777;52.254;9.618;2023-03-14T07:16:55;10.30;99.90
15355;DHT22;7777;52.254;9.618;2023-03-14T07:19:21;10.30;99.90
15355;DHT22;7777;52.254;9.618;2023-03-14T07:21:46;10.30;99.90
15355;DHT22;7777;52.254;9.618;2023-03-14T07:24:12;10.30;99.90
15355;DHT22;7777;52.254;9.618;2023-03-14T07:26:38;10.30;99.90
15355;DHT22;7777;52.254;9.618;2023-03-14T07:29:04;10.30;99.90
15355;DHT22;7777;52.254;9.618;2023-03-14T07:31:29;10.30;99.90
15355;DHT22;7777;52.254;9.618;2023-03-14T07:33:55;10.30;99.90
15355;DHT22;7777;52.254;9.618;2023-03-14T07:36:21;10.30;99.90
15355;DHT22;7777;52.254;9.618;2023-03-14T07:38:47;10.30;99.90
15355;DHT22;7777;52.254;9.618;2023-03-14T07:41:13;10.30;99.90
15355;DHT22;7777;52.254;9.618;2023-03-14T07:43:39;10.30;99.90
15355;DHT22;7777;52.254;9.618;2023-03-14T07:46:05;10.20;99.90
15355;DHT22;7777;52.254;9.618;2023-03-14T07:48:31;10.20;99.90
15355;DHT22;7777;52.254;9.618;2023-03-14T07:50:57;10.20;99.90
15355;DHT22;7777;52.254;9.618;2023-03-14T07:53:23;10.20;99.90
15355;DHT22;7777;52.254;9.618;2023-03-14T07:55:51;10.20;99.90
15355;DHT22;7777;52.254;9.618;2023-03-14T07:58:18;10.10;99.90
15355;DHT22;7777;52.254;9.618;2023-03-14T08:00:44;10.10;99.90
15355;DHT22;7777;52.254;9.618;2023-03-14T08:03:10;10.10;99.90
15355;DHT22;7777;52.254;9.618;2023-03-14T08:05:36;10.10;99.90
15355;DHT22;7777;52.254;9.618;2023-03-14T08:08:03;10.10;99.90
15355;DHT22;7777;52.254;9.618;2023-03-14T08:10:30;10.10;99.90
15355;DHT22;7777;52.254;9.618;2023-03-14T08:12:57;10.10;99.90
15355;DHT22;7777;52.254;9.618;2023-03-14T08:15:24;10.10;99.90
15355;DHT22;7777;52.254;9.618;2023-03-14T08:17:51;10.20;99.90
15355;DHT22;7777;52.254;9.618;2023-03-14T08:20:18;10.10;99.90
15355;DHT22;7777;52.254;9.618;2023-03-14T08:22:44;10.20;99.90
15355;DHT22;7777;52.254;9.618;2023-03-14T08:25:10;10.20;99.90
15355;DHT22;7777;52.254;9.618;2023-03-14T08:27:36;10.20;99.90
15355;DHT22;7777;52.254;9.618;2023-03-14T08:30:05;10.20;99.90
15355;DHT22;7777;52.254;9.618;2023-03-14T08:32:31;10.20;99.90
15355;DHT22;7777;52.254;9.618;2023-03-14T08:34:57;10.20;99.90
15355;DHT22;7777;52.254;9.618;2023-03-14T08:37:23;10.20;99.90
15355;DHT22;7777;52.254;9.618;2023-03-14T08:39:51;10.20;99.90
15355;DHT22;7777;52.254;9.618;2023-03-14T08:42:17;10.30;99.90
15355;DHT22;7777;52.254;9.618;2023-03-14T08:44:43;10.30;99.90
15355;DHT22;7777;52.254;9.618;2023-03-14T08:47:09;10.30;99.90
15355;DHT22;7777;52.254;9.618;2023-03-14T08:49:35;10.30;99.90
15355;DHT22;7777;52.254;9.618;2023-03-14T08:52:04;10.30;99.90
15355;DHT22;7777;52.254;9.618;2023-03-14T08:54:30;10.30;99.90
15355;DHT22;7777;52.254;9.618;2023-03-14T08:56:57;10.40;99.90
15355;DHT22;7777;52.254;9.618;2023-03-14T08:59:23;10.40;99.90
15355;DHT22;7777;52.254;9.618;2023-03-14T09:01:49;10.40;99.90
15355;DHT22;7777;52.254;9.618;2023-03-14T09:04:15;10.40;99.90
15355;DHT22;7777;52.254;9.618;2023-03-14T09:06:41;10.40;99.90
15355;DHT22;7777;52.254;9.618;2023-03-14T09:09:07;10.40;99.90
15355;DHT22;7777;52.254;9.618;2023-03-14T09:11:33;10.50;99.90
15355;DHT22;7777;52.254;9.618;2023-03-14T09:13:59;10.50;99.90
15355;DHT22;7777;52.254;9.618;2023-03-14T09:16:25;10.50;99.90
15355;DHT22;7777;52.254;9.618;2023-03-14T09:18:50;10.50;99.90
15355;DHT22;7777;52.254;9.618;2023-03-14T09:21:20;10.50;99.90
15355;DHT22;7777;52.254;9.618;2023-03-14T09:23:46;10.50;99.90
15355;DHT22;7777;52.254;9.618;2023-03-14T09:26:12;10.60;99.90
15355;DHT22;7777;52.254;9.618;2023-03-14T09:28:37;10.60;99.90
15355;DHT22;7777;52.254;9.618;2023-03-14T09:31:07;10.60;99.90
15355;DHT22;7777;52.254;9.618;2023-03-14T09:33:34;10.60;99.90
15355;DHT22;7777;52.254;9.618;2023-03-14T09:36:01;10.70;99.90
15355;DHT22;7777;52.254;9.618;2023-03-14T09:38:27;10.70;99.90
15355;DHT22;7777;52.254;9.618;2023-03-14T09:40:54;10.70;99.90
15355;DHT22;7777;52.254;9.618;2023-03-14T09:43:21;10.80;99.90
15355;DHT22;7777;52.254;9.618;2023-03-14T09:45:48;10.80;99.90
15355;DHT22;7777;52.254;9.618;2023-03-14T09:48:27;10.80;99.90
15355;DHT22;7777;52.254;9.618;2023-03-14T09:50:58;10.90;99.90
15355;DHT22;7777;52.254;9.618;2023-03-14T09:53:42;10.90;99.90
15355;DHT22;7777;52.254;9.618;2023-03-14T09:56:30;11.00;99.90
15355;DHT22;7777;52.254;9.618;2023-03-14T09:59:03;11.00;99.90
15355;DHT22;7777;52.254;9.618;2023-03-14T10:01:34;11.10;99.90
15355;DHT22;7777;52.254;9.618;2023-03-14T10:04:04;11.10;99.90
15355;DHT22;7777;52.254;9.618;2023-03-14T10:06:32;11.10;99.90
15355;DHT22;7777;52.254;9.618;2023-03-14T10:09:01;11.20;99.90
15355;DHT22;7777;52.254;9.618;2023-03-14T10:11:27;11.20;99.90
15355;DHT22;7777;52.254;9.618;2023-03-14T10:14:12;11.30;99.90
15355;DHT22;7777;52.254;9.618;2023-03-14T10:16:44;11.30;99.90
15355;DHT22;7777;52.254;9.618;2023-03-14T10:19:16;11.30;99.90
15355;DHT22;7777;52.254;9.618;2023-03-14T10:21:53;11.40;99.90
15355;DHT22;7777;52.254;9.618;2023-03-14T10:24:37;11.50;99.90
15355;DHT22;7777;52.254;9.618;2023-03-14T10:27:22;11.50;99.90
15355;DHT22;7777;52.254;9.618;2023-03-14T10:29:59;11.50;99.90
15355;DHT22;7777;52.254;9.618;2023-03-14T10:32:33;11.60;99.90
15355;DHT22;7777;52.254;9.618;2023-03-14T10:38:01;11.60;99.90
15355;DHT22;7777;52.254;9.618;2023-03-14T10:40:38;11.60;99.90
15355;DHT22;7777;52.254;9.618;2023-03-14T10:43:11;11.60;99.90
15355;DHT22;7777;52.254;9.618;2023-03-14T10:45:43;11.60;99.90
15355;DHT22;7777;52.254;9.618;2023-03-14T10:48:23;11.60;99.90
15355;DHT22;7777;52.254;9.618;2023-03-14T10:51:06;11.60;99.90
15355;DHT22;7777;52.254;9.618;2023-03-14T10:53:41;11.70;99.90
15355;DHT22;7777;52.254;9.618;2023-03-14T10:56:18;11.70;99.90
15355;DHT22;7777;52.254;9.618;2023-03-14T10:58:50;11.70;99.90
15355;DHT22;7777;52.254;9.618;2023-03-14T11:01:39;11.80;99.90
15355;DHT22;7777;52.254;9.618;2023-03-14T11:07:40;11.90;99.90
15355;DHT22;7777;52.254;9.618;2023-03-14T11:10:26;11.90;99.90
15355;DHT22;7777;52.254;9.618;2023-03-14T11:13:11;11.90;99.90
15355;DHT22;7777;52.254;9.618;2023-03-14T11:18:51;11.90;99.90
15355;DHT22;7777;52.254;9.618;2023-03-14T11:24:32;11.90;99.90
15355;DHT22;7777;52.254;9.618;2023-03-14T11:27:25;11.90;99.90
15355;DHT22;7777;52.254;9.618;2023-03-14T11:30:19;11.90;99.90
15355;DHT22;7777;52.254;9.618;2023-03-14T11:33:14;11.70;99.90
15355;DHT22;7777;52.254;9.618;2023-03-14T11:35:49;11.50;99.90
15355;DHT22;7777;52.254;9.618;2023-03-14T11:38:40;11.20;99.90
15355;DHT22;7777;52.254;9.618;2023-03-14T11:41:25;11.00;99.90
15355;DHT22;7777;52.254;9.618;2023-03-14T11:43:57;10.70;99.90
15355;DHT22;7777;52.254;9.618;2023-03-14T11:46:36;10.60;99.90
15355;DHT22;7777;52.254;9.618;2023-03-14T11:52:32;10.10;99.90
15355;DHT22;7777;52.254;9.618;2023-03-14T11:57:39;9.60;99.90
15355;DHT22;7777;52.254;9.618;2023-03-14T12:06:00;9.10;99.90
15355;DHT22;7777;52.254;9.618;2023-03-14T12:08:52;8.90;99.90
15355;DHT22;7777;52.254;9.618;2023-03-14T12:14:37;8.40;99.90
15355;DHT22;7777;52.254;9.618;2023-03-14T12:17:20;8.20;99.90
15355;DHT22;7777;52.254;9.618;2023-03-14T12:19:59;8.10;99.90
15355;DHT22;7777;52.254;9.618;2023-03-14T12:22:32;8.00;99.90
15355;DHT22;7777;52.254;9.618;2023-03-14T12:25:20;7.80;99.90
15355;DHT22;7777;52.254;9.618;2023-03-14T12:35:44;7.20;99.90
15355;DHT22;7777;52.254;9.618;2023-03-14T12:41:34;7.00;99.90
15355;DHT22;7777;52.254;9.618;2023-03-14T12:49:49;6.60;99.90
15355;DHT22;7777;52.254;9.618;2023-03-14T12:52:30;6.50;99.90
15355;DHT22;7777;52.254;9.618;2023-03-14T12:55:15;6.50;99.90
15355;DHT22;7777;52.254;9.618;2023-03-14T12:57:59;6.40;99.90
15355;DHT22;7777;52.254;9.618;2023-03-14T13:00:34;6.40;99.90
15355;DHT22;7777;52.254;9.618;2023-03-14T13:03:19;6.40;99.90
15355;DHT22;7777;52.254;9.618;2023-03-14T13:05:58;6.40;99.90
15355;DHT22;7777;52.254;9.618;2023-03-14T13:08:39;6.40;99.90
15355;DHT22;7777;52.254;9.618;2023-03-14T13:11:26;6.40;99.90
15355;DHT22;7777;52.254;9.618;2023-03-14T13:13:58;6.40;99.90
15355;DHT22;7777;52.254;9.618;2023-03-14T13:16:24;6.40;99.90
15355;DHT22;7777;52.254;9.618;2023-03-14T13:19:15;6.40;99.90
15355;DHT22;7777;52.254;9.618;2023-03-14T13:21:44;6.50;99.90
15355;DHT22;7777;52.254;9.618;2023-03-14T13:24:26;6.40;99.90
15355;DHT22;7777;52.254;9.618;2023-03-14T13:26:56;6.40;99.90
15355;DHT22;7777;52.254;9.618;2023-03-14T13:29:28;6.50;99.90
15355;DHT22;7777;52.254;9.618;2023-03-14T13:32:19;6.50;99.90
15355;DHT22;7777;52.254;9.618;2023-03-14T13:34:46;6.50;99.90
15355;DHT22;7777;52.254;9.618;2023-03-14T13:37:21;6.50;99.90
15355;DHT22;7777;52.254;9.618;2023-03-14T13:39:50;6.50;99.90
15355;DHT22;7777;52.254;9.618;2023-03-14T13:42:17;6.50;99.90
15355;DHT22;7777;52.254;9.618;2023-03-14T13:44:43;6.60;99.90
15355;DHT22;7777;52.254;9.618;2023-03-14T13:47:20;6.60;99.90
15355;DHT22;7777;52.254;9.618;2023-03-14T13:49:47;6.70;99.90
15355;DHT22;7777;52.254;9.618;2023-03-14T13:52:37;6.80;99.90
15355;DHT22;7777;52.254;9.618;2023-03-14T13:55:05;6.80;99.90
15355;DHT22;7777;52.254;9.618;2023-03-14T13:57:48;6.80;99.90
15355;DHT22;7777;52.254;9.618;2023-03-14T14:02:56;6.90;99.90
15355;DHT22;7777;52.254;9.618;2023-03-14T14:05:27;6.80;99.90
15355;DHT22;7777;52.254;9.618;2023-03-14T14:07:53;6.80;99.90
15355;DHT22;7777;52.254;9.618;2023-03-14T14:10:20;6.80;99.90
15355;DHT22;7777;52.254;9.618;2023-03-14T14:12:50;6.80;99.90
15355;DHT22;7777;52.254;9.618;2023-03-14T14:15:22;6.80;99.90
15355;DHT22;7777;52.254;9.618;2023-03-14T14:17:52;6.80;99.90
15355;DHT22;7777;52.254;9.618;2023-03-14T14:20:28;6.90;99.90
15355;DHT22;7777;52.254;9.618;2023-03-14T14:23:01;6.80;99.90
15355;DHT22;7777;52.254;9.618;2023-03-14T14:25:29;6.80;99.90
15355;DHT22;7777;52.254;9.618;2023-03-14T14:27:55;6.80;99.90
15355;DHT22;7777;52.254;9.618;2023-03-14T14:32:49;6.70;99.90
15355;DHT22;7777;52.254;9.618;2023-03-14T14:35:26;6.80;99.90
15355;DHT22;7777;52.254;9.618;2023-03-14T14:37:56;6.70;99.90
15355;DHT22;7777;52.254;9.618;2023-03-14T14:40:25;6.70;99.90
15355;DHT22;7777;52.254;9.618;2023-03-14T14:42:52;6.70;99.90
15355;DHT22;7777;52.254;9.618;2023-03-14T14:45:21;6.70;99.90
15355;DHT22;7777;52.254;9.618;2023-03-14T14:47:54;6.60;99.90
15355;DHT22;7777;52.254;9.618;2023-03-14T14:50:34;6.70;99.90
15355;DHT22;7777;52.254;9.618;2023-03-14T14:55:51;6.70;99.90
15355;DHT22;7777;52.254;9.618;2023-03-14T14:58:35;6.70;99.90
15355;DHT22;7777;52.254;9.618;2023-03-14T15:01:33;6.60;99.90
15355;DHT22;7777;52.254;9.618;2023-03-14T15:04:02;6.60;99.90
15355;DHT22;7777;52.254;9.618;2023-03-14T15:06:35;6.60;99.90
15355;DHT22;7777;52.254;9.618;2023-03-14T15:09:01;6.50;99.90
15355;DHT22;7777;52.254;9.618;2023-03-14T15:11:27;6.50;99.90
15355;DHT22;7777;52.254;9.618;2023-03-14T15:13:53;6.40;99.90
15355;DHT22;7777;52.254;9.618;2023-03-14T15:16:27;6.40;99.90
15355;DHT22;7777;52.254;9.618;2023-03-14T15:18:56;6.40;99.90
15355;DHT22;7777;52.254;9.618;2023-03-14T15:21:24;6.40;99.90
15355;DHT22;7777;52.254;9.618;2023-03-14T15:23:51;6.40;99.90
15355;DHT22;7777;52.254;9.618;2023-03-14T15:26:22;6.40;99.90
15355;DHT22;7777;52.254;9.618;2023-03-14T15:28:50;6.40;99.90
15355;DHT22;7777;52.254;9.618;2023-03-14T15:31:17;6.40;99.90
15355;DHT22;7777;52.254;9.618;2023-03-14T15:33:44;6.40;99.90
15355;DHT22;7777;52.254;9.618;2023-03-14T15:36:27;6.40;99.90
15355;DHT22;7777;52.254;9.618;2023-03-14T15:38:55;6.40;99.90
15355;DHT22;7777;52.254;9.618;2023-03-14T15:41:22;6.40;99.90
15355;DHT22;7777;52.254;9.618;2023-03-14T15:43:48;6.40;99.90
15355;DHT22;7777;52.254;9.618;2023-03-14T15:46:14;6.40;99.90
15355;DHT22;7777;52.254;9.618;2023-03-14T15:48:42;6.40;99.90
15355;DHT22;7777;52.254;9.618;2023-03-14T15:51:09;6.40;99.90
15355;DHT22;7777;52.254;9.618;2023-03-14T15:53:35;6.40;99.90
15355;DHT22;7777;52.254;9.618;2023-03-14T15:56:05;6.40;99.90
15355;DHT22;7777;52.254;9.618;2023-03-14T15:58:31;6.30;99.90
15355;DHT22;7777;52.254;9.618;2023-03-14T16:01:00;6.40;99.90
15355;DHT22;7777;52.254;9.618;2023-03-14T16:03:27;6.30;99.90
15355;DHT22;7777;52.254;9.618;2023-03-14T16:05:54;6.30;99.90
15355;DHT22;7777;52.254;9.618;2023-03-14T16:08:21;6.30;99.90
15355;DHT22;7777;52.254;9.618;2023-03-14T16:10:47;6.30;99.90
15355;DHT22;7777;52.254;9.618;2023-03-14T16:13:13;6.30;99.90
15355;DHT22;7777;52.254;9.618;2023-03-14T16:15:39;6.30;99.90
15355;DHT22;7777;52.254;9.618;2023-03-14T16:18:05;6.30;99.90
15355;DHT22;7777;52.254;9.618;2023-03-14T16:20:31;6.20;99.90
15355;DHT22;7777;52.254;9.618;2023-03-14T16:22:57;6.20;99.90
15355;DHT22;7777;52.254;9.618;2023-03-14T16:25:23;6.20;99.90
15355;DHT22;7777;52.254;9.618;2023-03-14T16:27:49;6.20;99.90
15355;DHT22;7777;52.254;9.618;2023-03-14T16:30:14;6.20;99.90
15355;DHT22;7777;52.254;9.618;2023-03-14T16:32:40;6.20;99.90
15355;DHT22;7777;52.254;9.618;2023-03-14T16:35:06;6.30;99.90
15355;DHT22;7777;52.254;9.618;2023-03-14T16:37:32;6.20;99.90
15355;DHT22;7777;52.254;9.618;2023-03-14T16:39:58;6.30;99.90
15355;DHT22;7777;52.254;9.618;2023-03-14T16:42:23;6.30;99.90
15355;DHT22;7777;52.254;9.618;2023-03-14T16:44:49;6.30;99.90
15355;DHT22;7777;52.254;9.618;2023-03-14T16:47:15;6.30;99.90
15355;DHT22;7777;52.254;9.618;2023-03-14T16:49:40;6.30;99.90
15355;DHT22;7777;52.254;9.618;2023-03-14T16:52:06;6.30;99.90
15355;DHT22;7777;52.254;9.618;2023-03-14T16:54:34;6.30;99.90
15355;DHT22;7777;52.254;9.618;2023-03-14T16:57:00;6.30;99.90
15355;DHT22;7777;52.254;9.618;2023-03-14T16:59:25;6.20;99.90
15355;DHT22;7777;52.254;9.618;2023-03-14T17:01:53;6.20;99.90
15355;DHT22;7777;52.254;9.618;2023-03-14T17:04:20;6.20;99.90